Beech Bottom, North Carolina
Current Conditions -  °F | °C
As of 6:15 AM on Thursday 18 Dec 2014 (Local Time) from KTNB Reporting Station
Clear Clear  
Wind Chill: 20°   Ceiling: Unl
Heat Index: 30°   Visibility: 10mi
Dew Point: 22°   Wind: 14mph
Humidity: 73%   Direction: 280°W
Pressure: 30.08"   Gusts: 22mph
Location:  36.0227°N, 81.9499°W
Report Text: KTNB 181115Z AUTO 28012G19KT 10SM CLR M01/M05 A3008 RMK AO2 T10101053
Loading
Personal Weather Stations






























Interactive Weather Map New forecast layout! Learn more

10-Day Weather Forecast

Advertisements
Track Severe Weather on mobile